sensor_id;sensor_type;location;lat;lon;timestamp;pressure;altitude;pressure_sealevel;temperature;humidity
30708;BME280;17458;48.958;8.284;2022-10-24T00:00:21;99900.47;;;16.49;91.93
30708;BME280;17458;48.958;8.284;2022-10-24T00:03:05;99908.41;;;16.45;91.87
30708;BME280;17458;48.958;8.284;2022-10-24T00:05:50;99901.34;;;16.48;92.14
30708;BME280;17458;48.958;8.284;2022-10-24T00:08:35;99893.19;;;16.42;92.55
30708;BME280;17458;48.958;8.284;2022-10-24T00:11:29;99896.03;;;16.51;91.71
30708;BME280;17458;48.958;8.284;2022-10-24T00:14:13;99887.84;;;16.42;92.25
30708;BME280;17458;48.958;8.284;2022-10-24T00:16:57;99889.56;;;16.40;92.25
30708;BME280;17458;48.958;8.284;2022-10-24T00:19:42;99891.31;;;16.38;92.57
30708;BME280;17458;48.958;8.284;2022-10-24T00:22:26;99883.19;;;16.34;92.49
30708;BME280;17458;48.958;8.284;2022-10-24T00:25:11;99876.22;;;16.42;92.27
30708;BME280;17458;48.958;8.284;2022-10-24T00:27:55;99863.72;;;16.44;92.08
30708;BME280;17458;48.958;8.284;2022-10-24T00:30:39;99870.25;;;16.11;95.16
30708;BME280;17458;48.958;8.284;2022-10-24T00:33:23;99874.16;;;16.30;93.30
30708;BME280;17458;48.958;8.284;2022-10-24T00:36:13;99872.38;;;16.29;92.67
30708;BME280;17458;48.958;8.284;2022-10-24T00:38:57;99888.41;;;16.26;92.56
30708;BME280;17458;48.958;8.284;2022-10-24T00:41:42;99881.34;;;16.31;92.27
30708;BME280;17458;48.958;8.284;2022-10-24T00:44:29;99884.66;;;16.18;92.35
30708;BME280;17458;48.958;8.284;2022-10-24T00:47:18;99891.81;;;16.19;91.67
30708;BME280;17458;48.958;8.284;2022-10-24T00:50:11;99889.88;;;16.10;91.49
30708;BME280;17458;48.958;8.284;2022-10-24T00:52:56;99882.47;;;15.97;92.74
30708;BME280;17458;48.958;8.284;2022-10-24T00:55:40;99885.41;;;16.11;92.22
30708;BME280;17458;48.958;8.284;2022-10-24T00:58:26;99879.16;;;16.10;91.79
30708;BME280;17458;48.958;8.284;2022-10-24T01:01:11;99896.25;;;16.17;90.86
30708;BME280;17458;48.958;8.284;2022-10-24T01:03:55;99888.28;;;16.20;89.95
30708;BME280;17458;48.958;8.284;2022-10-24T01:06:44;99893.31;;;16.05;89.70
30708;BME280;17458;48.958;8.284;2022-10-24T01:12:58;99881.47;;;15.93;91.29
30708;BME280;17458;48.958;8.284;2022-10-24T01:15:47;99885.06;;;15.94;91.17
30708;BME280;17458;48.958;8.284;2022-10-24T01:18:42;99883.31;;;15.96;91.33
30708;BME280;17458;48.958;8.284;2022-10-24T01:21:32;99874.38;;;15.95;90.71
30708;BME280;17458;48.958;8.284;2022-10-24T01:30:41;99862.59;;;15.87;90.53
30708;BME280;17458;48.958;8.284;2022-10-24T01:33:37;99852.91;;;15.92;90.40
30708;BME280;17458;48.958;8.284;2022-10-24T01:36:32;99850.16;;;15.89;90.18
30708;BME280;17458;48.958;8.284;2022-10-24T01:39:18;99843.97;;;15.92;89.93
30708;BME280;17458;48.958;8.284;2022-10-24T01:42:05;99841.31;;;15.93;89.59
30708;BME280;17458;48.958;8.284;2022-10-24T01:44:53;99851.19;;;15.96;89.46
30708;BME280;17458;48.958;8.284;2022-10-24T01:47:43;99851.31;;;16.04;89.10
30708;BME280;17458;48.958;8.284;2022-10-24T01:50:29;99848.66;;;16.04;88.64
30708;BME280;17458;48.958;8.284;2022-10-24T01:53:15;99846.81;;;16.01;88.46
30708;BME280;17458;48.958;8.284;2022-10-24T01:55:59;99859.00;;;15.85;88.81
30708;BME280;17458;48.958;8.284;2022-10-24T01:58:43;99860.94;;;15.92;89.16
30708;BME280;17458;48.958;8.284;2022-10-24T02:01:28;99845.69;;;15.90;88.76
30708;BME280;17458;48.958;8.284;2022-10-24T02:04:13;99852.91;;;15.92;88.83
30708;BME280;17458;48.958;8.284;2022-10-24T02:07:01;99848.09;;;16.20;87.77
30708;BME280;17458;48.958;8.284;2022-10-24T02:09:51;99848.09;;;16.20;86.87
30708;BME280;17458;48.958;8.284;2022-10-24T02:12:41;99864.25;;;15.81;89.38
30708;BME280;17458;48.958;8.284;2022-10-24T02:15:29;99849.91;;;15.77;89.64
30708;BME280;17458;48.958;8.284;2022-10-24T02:18:14;99850.84;;;15.79;90.15
30708;BME280;17458;48.958;8.284;2022-10-24T02:23:58;99838.34;;;16.23;87.44
30708;BME280;17458;48.958;8.284;2022-10-24T02:26:55;99831.69;;;16.51;85.76
30708;BME280;17458;48.958;8.284;2022-10-24T02:29:57;99841.72;;;16.15;87.16
30708;BME280;17458;48.958;8.284;2022-10-24T02:32:46;99841.19;;;15.87;88.69
30708;BME280;17458;48.958;8.284;2022-10-24T02:35:34;99841.06;;;15.81;89.97
30708;BME280;17458;48.958;8.284;2022-10-24T02:38:27;99848.97;;;15.75;90.25
30708;BME280;17458;48.958;8.284;2022-10-24T02:41:24;99825.84;;;15.79;90.17
30708;BME280;17458;48.958;8.284;2022-10-24T02:44:12;99830.28;;;15.78;90.21
30708;BME280;17458;48.958;8.284;2022-10-24T02:47:00;99815.13;;;15.79;89.95
30708;BME280;17458;48.958;8.284;2022-10-24T02:49:46;99823.94;;;15.73;90.06
30708;BME280;17458;48.958;8.284;2022-10-24T02:52:31;99824.94;;;15.78;90.18
30708;BME280;17458;48.958;8.284;2022-10-24T02:55:15;99831.16;;;15.77;90.32
30708;BME280;17458;48.958;8.284;2022-10-24T02:57:59;99825.06;;;15.84;90.37
30708;BME280;17458;48.958;8.284;2022-10-24T03:00:43;99825.97;;;15.85;90.56
30708;BME280;17458;48.958;8.284;2022-10-24T03:03:27;99824.22;;;15.85;90.72
30708;BME280;17458;48.958;8.284;2022-10-24T03:06:11;99826.84;;;15.84;90.99
30708;BME280;17458;48.958;8.284;2022-10-24T03:08:55;99832.25;;;15.85;91.19
30708;BME280;17458;48.958;8.284;2022-10-24T03:11:39;99838.34;;;15.80;91.94
30708;BME280;17458;48.958;8.284;2022-10-24T03:14:24;99828.56;;;15.80;91.71
30708;BME280;17458;48.958;8.284;2022-10-24T03:17:08;99854.00;;;16.04;90.78
30708;BME280;17458;48.958;8.284;2022-10-24T03:19:52;99862.25;;;16.13;89.13
30708;BME280;17458;48.958;8.284;2022-10-24T03:22:36;99866.53;;;16.05;89.38
30708;BME280;17458;48.958;8.284;2022-10-24T03:25:20;99869.94;;;15.96;89.87
30708;BME280;17458;48.958;8.284;2022-10-24T03:28:05;99863.63;;;15.94;90.10
30708;BME280;17458;48.958;8.284;2022-10-24T03:30:51;99863.63;;;15.94;90.21
30708;BME280;17458;48.958;8.284;2022-10-24T03:33:36;99854.84;;;16.01;90.12
30708;BME280;17458;48.958;8.284;2022-10-24T03:36:20;99865.38;;;15.92;90.63
30708;BME280;17458;48.958;8.284;2022-10-24T03:39:04;99858.44;;;16.02;90.50
30708;BME280;17458;48.958;8.284;2022-10-24T03:41:48;99854.03;;;16.05;90.42
30708;BME280;17458;48.958;8.284;2022-10-24T03:44:32;99864.72;;;16.04;90.21
30708;BME280;17458;48.958;8.284;2022-10-24T03:47:16;99864.22;;;15.79;91.24
30708;BME280;17458;48.958;8.284;2022-10-24T03:50:00;99866.00;;;15.79;91.96
30708;BME280;17458;48.958;8.284;2022-10-24T03:52:44;99859.06;;;15.88;91.23
30708;BME280;17458;48.958;8.284;2022-10-24T03:55:29;99862.75;;;15.93;91.03
30708;BME280;17458;48.958;8.284;2022-10-24T03:58:16;99865.38;;;15.92;90.69
30708;BME280;17458;48.958;8.284;2022-10-24T04:01:00;99853.88;;;15.96;90.41
30708;BME280;17458;48.958;8.284;2022-10-24T04:03:44;99868.81;;;15.86;89.96
30708;BME280;17458;48.958;8.284;2022-10-24T04:06:28;99875.06;;;15.85;90.55
30708;BME280;17458;48.958;8.284;2022-10-24T04:09:12;99874.88;;;15.76;90.77
30708;BME280;17458;48.958;8.284;2022-10-24T04:11:56;99887.28;;;15.73;91.04
30708;BME280;17458;48.958;8.284;2022-10-24T04:14:40;99893.72;;;15.81;90.98
30708;BME280;17458;48.958;8.284;2022-10-24T04:17:25;99900.88;;;15.82;90.77
30708;BME280;17458;48.958;8.284;2022-10-24T04:20:09;99894.72;;;15.87;90.72
30708;BME280;17458;48.958;8.284;2022-10-24T04:23:05;99895.66;;;15.89;90.58
30708;BME280;17458;48.958;8.284;2022-10-24T04:25:49;99895.75;;;15.92;90.72
30708;BME280;17458;48.958;8.284;2022-10-24T04:28:33;99891.38;;;15.96;90.95
30708;BME280;17458;48.958;8.284;2022-10-24T04:31:17;99883.28;;;15.94;90.86
30708;BME280;17458;48.958;8.284;2022-10-24T04:34:01;99882.53;;;16.02;90.76
30708;BME280;17458;48.958;8.284;2022-10-24T04:36:45;99874.50;;;16.02;90.70
30708;BME280;17458;48.958;8.284;2022-10-24T04:39:29;99869.16;;;16.03;91.03
30708;BME280;17458;48.958;8.284;2022-10-24T04:42:13;99875.47;;;16.05;91.13
30708;BME280;17458;48.958;8.284;2022-10-24T04:44:57;99892.66;;;16.16;90.72
30708;BME280;17458;48.958;8.284;2022-10-24T04:47:41;99914.94;;;15.73;93.19
30708;BME280;17458;48.958;8.284;2022-10-24T04:50:25;99895.47;;;15.80;93.21
30708;BME280;17458;48.958;8.284;2022-10-24T04:53:09;99898.25;;;16.28;92.13
30708;BME280;17458;48.958;8.284;2022-10-24T04:55:52;99898.09;;;16.64;90.54
30708;BME280;17458;48.958;8.284;2022-10-24T04:58:36;99904.59;;;16.77;91.18
30708;BME280;17458;48.958;8.284;2022-10-24T05:01:21;99902.75;;;17.26;88.62
30708;BME280;17458;48.958;8.284;2022-10-24T05:04:04;99906.09;;;17.11;87.79
30708;BME280;17458;48.958;8.284;2022-10-24T05:06:48;99915.72;;;17.54;84.79
30708;BME280;17458;48.958;8.284;2022-10-24T05:09:32;99911.84;;;17.96;83.76
30708;BME280;17458;48.958;8.284;2022-10-24T05:12:17;99924.56;;;18.09;83.47
30708;BME280;17458;48.958;8.284;2022-10-24T05:15:01;99929.97;;;18.11;82.85
30708;BME280;17458;48.958;8.284;2022-10-24T05:17:46;99927.28;;;17.50;86.98
30708;BME280;17458;48.958;8.284;2022-10-24T05:20:30;99929.81;;;17.43;88.59
30708;BME280;17458;48.958;8.284;2022-10-24T05:23:14;99936.63;;;17.75;87.92
30708;BME280;17458;48.958;8.284;2022-10-24T05:25:58;99932.31;;;17.88;84.76
30708;BME280;17458;48.958;8.284;2022-10-24T05:28:42;99936.31;;;17.57;85.46
30708;BME280;17458;48.958;8.284;2022-10-24T05:31:26;99928.44;;;17.12;88.30
30708;BME280;17458;48.958;8.284;2022-10-24T05:34:10;99928.16;;;16.95;89.23
30708;BME280;17458;48.958;8.284;2022-10-24T05:36:54;99923.06;;;17.10;88.90
30708;BME280;17458;48.958;8.284;2022-10-24T05:39:38;99913.53;;;17.30;87.69
30708;BME280;17458;48.958;8.284;2022-10-24T05:42:22;99921.94;;;17.52;87.34
30708;BME280;17458;48.958;8.284;2022-10-24T05:45:08;99929.38;;;17.71;86.66
30708;BME280;17458;48.958;8.284;2022-10-24T05:47:53;99919.56;;;17.73;86.80
30708;BME280;17458;48.958;8.284;2022-10-24T05:50:36;99918.63;;;18.39;83.73
30708;BME280;17458;48.958;8.284;2022-10-24T05:53:20;99913.38;;;18.48;82.59
30708;BME280;17458;48.958;8.284;2022-10-24T05:56:04;99916.22;;;18.60;82.02
30708;BME280;17458;48.958;8.284;2022-10-24T05:58:49;99921.47;;;18.51;83.03
30708;BME280;17458;48.958;8.284;2022-10-24T06:01:32;99934.72;;;18.34;83.29
30708;BME280;17458;48.958;8.284;2022-10-24T06:04:16;99947.56;;;18.58;82.07
30708;BME280;17458;48.958;8.284;2022-10-24T06:07:00;99945.00;;;18.69;81.45
30708;BME280;17458;48.958;8.284;2022-10-24T06:09:44;99950.38;;;18.66;81.28
30708;BME280;17458;48.958;8.284;2022-10-24T06:12:28;99957.50;;;18.64;81.63
30708;BME280;17458;48.958;8.284;2022-10-24T06:15:12;99970.16;;;18.72;81.49
30708;BME280;17458;48.958;8.284;2022-10-24T06:17:56;99967.41;;;18.66;81.92
30708;BME280;17458;48.958;8.284;2022-10-24T06:20:40;99964.69;;;18.63;81.45
30708;BME280;17458;48.958;8.284;2022-10-24T06:23:24;99963.44;;;18.40;82.72
30708;BME280;17458;48.958;8.284;2022-10-24T06:26:09;99975.22;;;18.48;82.93
30708;BME280;17458;48.958;8.284;2022-10-24T06:28:54;99978.69;;;18.38;83.37
30708;BME280;17458;48.958;8.284;2022-10-24T06:31:38;99985.94;;;18.45;82.93
30708;BME280;17458;48.958;8.284;2022-10-24T06:34:22;99984.44;;;18.00;84.60
30708;BME280;17458;48.958;8.284;2022-10-24T06:37:06;99987.00;;;17.91;83.17
30708;BME280;17458;48.958;8.284;2022-10-24T06:39:50;99995.28;;;18.06;82.06
30708;BME280;17458;48.958;8.284;2022-10-24T06:42:34;99997.22;;;18.18;81.51
30708;BME280;17458;48.958;8.284;2022-10-24T06:45:17;99999.84;;;18.11;81.43
30708;BME280;17458;48.958;8.284;2022-10-24T06:48:03;99999.94;;;18.20;80.47
30708;BME280;17458;48.958;8.284;2022-10-24T06:50:48;99996.44;;;18.24;80.35
30708;BME280;17458;48.958;8.284;2022-10-24T06:53:32;100003.88;;;18.46;79.18
30708;BME280;17458;48.958;8.284;2022-10-24T06:56:17;100000.09;;;18.32;79.06
30708;BME280;17458;48.958;8.284;2022-10-24T06:59:01;100012.13;;;18.58;78.99
30708;BME280;17458;48.958;8.284;2022-10-24T07:01:45;100000.56;;;18.64;78.42
30708;BME280;17458;48.958;8.284;2022-10-24T07:04:30;99996.34;;;18.89;77.05
30708;BME280;17458;48.958;8.284;2022-10-24T07:07:16;99990.06;;;18.88;76.34
30708;BME280;17458;48.958;8.284;2022-10-24T07:10:00;99992.72;;;18.87;76.46
30708;BME280;17458;48.958;8.284;2022-10-24T07:12:44;100006.22;;;18.90;76.87
30708;BME280;17458;48.958;8.284;2022-10-24T07:15:28;100007.75;;;18.69;78.04
30708;BME280;17458;48.958;8.284;2022-10-24T07:18:13;100016.81;;;18.76;78.49
30708;BME280;17458;48.958;8.284;2022-10-24T07:21:20;100029.06;;;18.53;79.08
30708;BME280;17458;48.958;8.284;2022-10-24T07:24:04;100019.03;;;18.41;80.08
30708;BME280;17458;48.958;8.284;2022-10-24T07:26:48;100017.19;;;18.35;81.15
30708;BME280;17458;48.958;8.284;2022-10-24T07:29:33;100009.13;;;18.35;80.80
30708;BME280;17458;48.958;8.284;2022-10-24T07:32:17;100012.78;;;18.42;80.35
30708;BME280;17458;48.958;8.284;2022-10-24T07:35:01;100019.47;;;18.73;79.41
30708;BME280;17458;48.958;8.284;2022-10-24T07:37:45;100021.69;;;18.39;80.75
30708;BME280;17458;48.958;8.284;2022-10-24T07:40:29;100014.84;;;18.61;80.22
30708;BME280;17458;48.958;8.284;2022-10-24T07:43:14;100020.94;;;18.48;80.14
30708;BME280;17458;48.958;8.284;2022-10-24T07:45:58;100018.69;;;18.80;79.25
30708;BME280;17458;48.958;8.284;2022-10-24T07:48:42;100011.25;;;18.61;80.63
30708;BME280;17458;48.958;8.284;2022-10-24T07:51:26;100019.56;;;18.79;78.67
30708;BME280;17458;48.958;8.284;2022-10-24T07:54:12;100013.44;;;18.97;77.69
30708;BME280;17458;48.958;8.284;2022-10-24T07:56:56;100011.50;;;18.81;78.17
30708;BME280;17458;48.958;8.284;2022-10-24T07:59:40;100016.41;;;19.21;76.70
30708;BME280;17458;48.958;8.284;2022-10-24T08:02:24;100011.19;;;19.39;76.26
30708;BME280;17458;48.958;8.284;2022-10-24T08:05:09;100014.84;;;19.44;77.69
30708;BME280;17458;48.958;8.284;2022-10-24T08:07:54;100015.66;;;19.39;77.30
30708;BME280;17458;48.958;8.284;2022-10-24T08:10:38;100011.13;;;19.32;76.83
30708;BME280;17458;48.958;8.284;2022-10-24T08:13:22;100010.28;;;19.39;76.99
30708;BME280;17458;48.958;8.284;2022-10-24T08:16:09;100008.59;;;19.48;76.63
30708;BME280;17458;48.958;8.284;2022-10-24T08:18:55;100021.19;;;19.51;76.50
30708;BME280;17458;48.958;8.284;2022-10-24T08:21:40;100017.59;;;19.49;76.50
30708;BME280;17458;48.958;8.284;2022-10-24T08:24:24;100015.75;;;19.45;76.81
30708;BME280;17458;48.958;8.284;2022-10-24T08:27:08;100005.00;;;19.48;76.47
30708;BME280;17458;48.958;8.284;2022-10-24T08:29:52;100017.72;;;19.63;76.51
30708;BME280;17458;48.958;8.284;2022-10-24T08:32:36;100019.53;;;19.62;76.51
30708;BME280;17458;48.958;8.284;2022-10-24T08:35:21;100022.00;;;19.42;77.06
30708;BME280;17458;48.958;8.284;2022-10-24T08:38:05;100021.38;;;19.72;76.26
30708;BME280;17458;48.958;8.284;2022-10-24T08:40:49;100013.25;;;19.63;76.69
30708;BME280;17458;48.958;8.284;2022-10-24T08:43:33;100004.94;;;19.43;78.52
30708;BME280;17458;48.958;8.284;2022-10-24T08:46:38;100007.63;;;19.43;78.69
30708;BME280;17458;48.958;8.284;2022-10-24T08:52:40;100013.88;;;19.36;79.31
30708;BME280;17458;48.958;8.284;2022-10-24T08:55:38;100014.78;;;19.37;79.59
30708;BME280;17458;48.958;8.284;2022-10-24T09:01:13;100007.56;;;19.34;79.77
30708;BME280;17458;48.958;8.284;2022-10-24T09:04:04;100011.19;;;19.36;79.52
30708;BME280;17458;48.958;8.284;2022-10-24T09:06:51;100017.41;;;19.32;79.79
30708;BME280;17458;48.958;8.284;2022-10-24T09:09:39;100021.94;;;19.38;80.07
30708;BME280;17458;48.958;8.284;2022-10-24T09:12:27;100029.13;;;19.36;79.71
30708;BME280;17458;48.958;8.284;2022-10-24T09:15:19;100023.72;;;19.34;80.27
30708;BME280;17458;48.958;8.284;2022-10-24T09:18:13;100023.94;;;19.57;79.15
30708;BME280;17458;48.958;8.284;2022-10-24T09:21:00;100030.31;;;19.67;78.92
30708;BME280;17458;48.958;8.284;2022-10-24T09:23:46;100038.47;;;19.76;78.66
30708;BME280;17458;48.958;8.284;2022-10-24T09:26:31;100035.75;;;19.73;77.51
30708;BME280;17458;48.958;8.284;2022-10-24T09:29:15;100042.06;;;19.75;77.62
30708;BME280;17458;48.958;8.284;2022-10-24T09:32:01;100038.59;;;19.96;76.30
30708;BME280;17458;48.958;8.284;2022-10-24T09:34:45;100052.19;;;20.11;76.60
30708;BME280;17458;48.958;8.284;2022-10-24T09:37:45;100059.41;;;20.13;77.57
30708;BME280;17458;48.958;8.284;2022-10-24T09:40:32;100066.66;;;20.22;77.84
30708;BME280;17458;48.958;8.284;2022-10-24T09:43:30;100076.50;;;20.15;76.83
30708;BME280;17458;48.958;8.284;2022-10-24T09:46:34;100069.44;;;20.33;76.28
30708;BME280;17458;48.958;8.284;2022-10-24T09:49:21;100080.22;;;20.33;76.16
30708;BME280;17458;48.958;8.284;2022-10-24T09:52:20;100075.88;;;20.55;74.94
30708;BME280;17458;48.958;8.284;2022-10-24T09:55:26;100071.41;;;20.58;74.35
30708;BME280;17458;48.958;8.284;2022-10-24T09:58:18;100078.63;;;20.65;75.04
30708;BME280;17458;48.958;8.284;2022-10-24T10:04:03;100073.19;;;20.64;74.85
30708;BME280;17458;48.958;8.284;2022-10-24T10:06:49;100077.78;;;20.75;74.75
30708;BME280;17458;48.958;8.284;2022-10-24T10:09:34;100088.59;;;20.84;75.25
30708;BME280;17458;48.958;8.284;2022-10-24T10:12:31;100082.31;;;20.92;74.96
30708;BME280;17458;48.958;8.284;2022-10-24T10:15:23;100082.34;;;20.98;74.61
30708;BME280;17458;48.958;8.284;2022-10-24T10:23:57;100083.31;;;21.12;76.02
30708;BME280;17458;48.958;8.284;2022-10-24T10:26:45;100085.13;;;21.16;75.41
30708;BME280;17458;48.958;8.284;2022-10-24T10:29:29;100077.88;;;21.00;74.29
30708;BME280;17458;48.958;8.284;2022-10-24T10:32:26;100084.25;;;21.20;75.67
30708;BME280;17458;48.958;8.284;2022-10-24T10:35:20;100078.81;;;21.11;75.33
30708;BME280;17458;48.958;8.284;2022-10-24T10:41:05;100092.38;;;21.26;73.92
30708;BME280;17458;48.958;8.284;2022-10-24T10:49:57;100105.03;;;21.32;72.51
30708;BME280;17458;48.958;8.284;2022-10-24T10:52:47;100116.66;;;21.20;73.15
30708;BME280;17458;48.958;8.284;2022-10-24T10:55:46;100118.41;;;21.10;72.19
30708;BME280;17458;48.958;8.284;2022-10-24T11:01:42;100134.44;;;20.72;71.22
30708;BME280;17458;48.958;8.284;2022-10-24T11:04:46;100128.97;;;20.65;71.15
30708;BME280;17458;48.958;8.284;2022-10-24T11:08:01;100119.91;;;20.52;71.17
30708;BME280;17458;48.958;8.284;2022-10-24T11:10:57;100121.44;;;20.16;72.74
30708;BME280;17458;48.958;8.284;2022-10-24T11:17:23;100112.72;;;20.52;71.03
30708;BME280;17458;48.958;8.284;2022-10-24T11:20:13;100115.19;;;20.22;71.44
30708;BME280;17458;48.958;8.284;2022-10-24T11:23:29;100112.75;;;20.54;71.35
30708;BME280;17458;48.958;8.284;2022-10-24T11:26:27;100114.56;;;20.58;70.04
30708;BME280;17458;48.958;8.284;2022-10-24T11:29:40;100107.38;;;20.65;69.98
30708;BME280;17458;48.958;8.284;2022-10-24T11:32:51;100108.47;;;20.99;69.33
30708;BME280;17458;48.958;8.284;2022-10-24T11:35:39;100119.19;;;20.82;68.82
30708;BME280;17458;48.958;8.284;2022-10-24T11:38:29;100113.78;;;20.76;68.84
30708;BME280;17458;48.958;8.284;2022-10-24T11:41:25;100111.13;;;20.88;69.30
30708;BME280;17458;48.958;8.284;2022-10-24T11:53:35;100083.19;;;20.81;67.06
30708;BME280;17458;48.958;8.284;2022-10-24T11:59:18;100079.56;;;20.72;68.10
30708;BME280;17458;48.958;8.284;2022-10-24T12:05:46;100076.81;;;20.67;68.36
30708;BME280;17458;48.958;8.284;2022-10-24T12:14:44;100049.09;;;21.05;66.91
30708;BME280;17458;48.958;8.284;2022-10-24T12:18:03;100055.47;;;21.34;66.68
30708;BME280;17458;48.958;8.284;2022-10-24T12:20:59;100050.09;;;21.52;66.06
30708;BME280;17458;48.958;8.284;2022-10-24T12:23:54;100045.59;;;21.44;65.46
30708;BME280;17458;48.958;8.284;2022-10-24T12:26:38;100039.22;;;21.14;66.48
30708;BME280;17458;48.958;8.284;2022-10-24T12:29:25;100041.97;;;21.37;65.45
30708;BME280;17458;48.958;8.284;2022-10-24T12:32:32;100045.63;;;21.56;66.72
30708;BME280;17458;48.958;8.284;2022-10-24T12:47:28;100044.72;;;21.84;64.04
30708;BME280;17458;48.958;8.284;2022-10-24T12:59:44;100059.97;;;22.39;63.32
30708;BME280;17458;48.958;8.284;2022-10-24T13:12:00;100031.06;;;22.57;63.30
30708;BME280;17458;48.958;8.284;2022-10-24T13:15:12;100036.44;;;22.65;62.88
30708;BME280;17458;48.958;8.284;2022-10-24T13:21:27;100042.88;;;22.29;62.18
30708;BME280;17458;48.958;8.284;2022-10-24T13:32:33;100033.00;;;22.13;63.57
30708;BME280;17458;48.958;8.284;2022-10-24T13:35:22;100027.50;;;22.45;62.35
30708;BME280;17458;48.958;8.284;2022-10-24T13:38:08;100036.56;;;22.25;62.16
30708;BME280;17458;48.958;8.284;2022-10-24T13:40:52;100038.38;;;22.19;62.39
30708;BME280;17458;48.958;8.284;2022-10-24T13:43:42;100032.13;;;21.61;63.68
30708;BME280;17458;48.958;8.284;2022-10-24T13:46:45;100046.50;;;21.40;64.91
30708;BME280;17458;48.958;8.284;2022-10-24T13:49:51;100058.22;;;21.52;64.25
30708;BME280;17458;48.958;8.284;2022-10-24T13:52:46;100052.78;;;21.49;64.57
30708;BME280;17458;48.958;8.284;2022-10-24T13:55:35;100053.72;;;21.57;64.84
30708;BME280;17458;48.958;8.284;2022-10-24T13:58:22;100055.53;;;21.60;64.40
30708;BME280;17458;48.958;8.284;2022-10-24T14:03:58;100052.81;;;21.86;64.17
30708;BME280;17458;48.958;8.284;2022-10-24T14:06:43;100059.13;;;21.86;64.82
30708;BME280;17458;48.958;8.284;2022-10-24T14:09:27;100059.13;;;21.88;64.23
30708;BME280;17458;48.958;8.284;2022-10-24T14:12:22;100052.81;;;21.51;64.67
30708;BME280;17458;48.958;8.284;2022-10-24T14:15:19;100055.53;;;21.62;65.23
30708;BME280;17458;48.958;8.284;2022-10-24T14:18:12;100049.22;;;21.43;64.92
30708;BME280;17458;48.958;8.284;2022-10-24T14:21:00;100054.53;;;21.17;65.19
30708;BME280;17458;48.958;8.284;2022-10-24T14:23:58;100047.28;;;20.99;65.01
30708;BME280;17458;48.958;8.284;2022-10-24T14:26:44;100050.09;;;21.33;65.18
30708;BME280;17458;48.958;8.284;2022-10-24T14:29:30;100050.09;;;21.42;64.38
30708;BME280;17458;48.958;8.284;2022-10-24T14:32:15;100043.81;;;21.79;63.13
30708;BME280;17458;48.958;8.284;2022-10-24T14:35:00;100038.41;;;21.81;62.16
30708;BME280;17458;48.958;8.284;2022-10-24T14:37:44;100055.50;;;21.78;62.87
30708;BME280;17458;48.958;8.284;2022-10-24T14:40:32;100058.19;;;21.49;63.81
30708;BME280;17458;48.958;8.284;2022-10-24T14:43:19;100059.13;;;21.64;63.55
30708;BME280;17458;48.958;8.284;2022-10-24T14:49:30;100057.31;;;21.50;63.45
30708;BME280;17458;48.958;8.284;2022-10-24T14:52:26;100053.69;;;21.42;63.92
30708;BME280;17458;48.958;8.284;2022-10-24T14:55:18;100062.59;;;21.08;64.93
30708;BME280;17458;48.958;8.284;2022-10-24T14:58:05;100060.78;;;21.07;65.18
30708;BME280;17458;48.958;8.284;2022-10-24T15:00:50;100059.84;;;20.91;65.21
30708;BME280;17458;48.958;8.284;2022-10-24T15:03:50;100063.53;;;21.17;64.40
30708;BME280;17458;48.958;8.284;2022-10-24T15:06:41;100075.13;;;20.92;65.26
30708;BME280;17458;48.958;8.284;2022-10-24T15:09:25;100067.94;;;20.86;65.02
30708;BME280;17458;48.958;8.284;2022-10-24T15:12:11;100068.78;;;20.76;64.88
30708;BME280;17458;48.958;8.284;2022-10-24T15:15:22;100065.13;;;20.67;65.29
30708;BME280;17458;48.958;8.284;2022-10-24T15:21:06;100078.63;;;20.68;65.37
30708;BME280;17458;48.958;8.284;2022-10-24T15:23:58;100070.53;;;20.67;65.53
30708;BME280;17458;48.958;8.284;2022-10-24T15:26:43;100067.63;;;20.33;66.10
30708;BME280;17458;48.958;8.284;2022-10-24T15:29:28;100078.50;;;20.42;66.48
30708;BME280;17458;48.958;8.284;2022-10-24T15:32:14;100075.88;;;20.56;65.98
30708;BME280;17458;48.958;8.284;2022-10-24T15:34:58;100074.13;;;20.67;65.84
30708;BME280;17458;48.958;8.284;2022-10-24T15:37:59;100058.84;;;20.62;66.04
30708;BME280;17458;48.958;8.284;2022-10-24T15:40:47;100066.91;;;20.60;66.53
30708;BME280;17458;48.958;8.284;2022-10-24T15:43:34;100063.28;;;20.49;66.23
30708;BME280;17458;48.958;8.284;2022-10-24T15:46:18;100073.97;;;20.38;66.62
30708;BME280;17458;48.958;8.284;2022-10-24T15:49:02;100076.69;;;20.40;66.77
30708;BME280;17458;48.958;8.284;2022-10-24T15:51:48;100078.38;;;20.27;67.65
30708;BME280;17458;48.958;8.284;2022-10-24T15:54:33;100073.84;;;20.20;67.21
30708;BME280;17458;48.958;8.284;2022-10-24T15:57:17;100077.34;;;20.05;68.53
30708;BME280;17458;48.958;8.284;2022-10-24T16:00:02;100080.81;;;19.89;68.86
30708;BME280;17458;48.958;8.284;2022-10-24T16:02:57;100079.97;;;19.99;68.72
30708;BME280;17458;48.958;8.284;2022-10-24T16:05:46;100084.44;;;19.97;68.70
30708;BME280;17458;48.958;8.284;2022-10-24T16:08:31;100087.84;;;19.73;69.68
30708;BME280;17458;48.958;8.284;2022-10-24T16:11:15;100079.66;;;19.61;69.71
30708;BME280;17458;48.958;8.284;2022-10-24T16:13:59;100089.72;;;19.79;69.24
30708;BME280;17458;48.958;8.284;2022-10-24T16:16:43;100093.28;;;19.76;69.51
30708;BME280;17458;48.958;8.284;2022-10-24T16:19:27;100101.44;;;19.86;68.85
30708;BME280;17458;48.958;8.284;2022-10-24T16:22:12;100106.75;;;19.81;69.25
30708;BME280;17458;48.958;8.284;2022-10-24T16:24:58;100112.94;;;19.68;69.73
30708;BME280;17458;48.958;8.284;2022-10-24T16:27:42;100102.25;;;19.75;69.77
30708;BME280;17458;48.958;8.284;2022-10-24T16:30:28;100101.34;;;19.75;69.64
30708;BME280;17458;48.958;8.284;2022-10-24T16:33:12;100111.09;;;19.61;71.44
30708;BME280;17458;48.958;8.284;2022-10-24T16:35:56;100108.44;;;19.67;71.53
30708;BME280;17458;48.958;8.284;2022-10-24T16:38:41;100107.34;;;19.48;72.22